createdAt,value
2018-01-27T00:00:17.244Z,34.10
2018-01-27T00:02:44.866Z,30.43
2018-01-27T00:05:12.442Z,38.40
2018-01-27T00:07:40.024Z,32.30
2018-01-27T00:10:07.559Z,33.83
2018-01-27T00:12:35.131Z,32.70
2018-01-27T00:15:02.665Z,31.07
2018-01-27T00:17:30.252Z,37.00
2018-01-27T00:19:57.797Z,33.90
2018-01-27T00:22:25.377Z,30.70
2018-01-27T00:24:52.950Z,33.57
2018-01-27T00:27:20.526Z,37.13
2018-01-27T00:29:48.065Z,35.87
2018-01-27T00:32:15.648Z,31.17
2018-01-27T00:34:43.190Z,30.83
2018-01-27T00:37:10.768Z,30.00
2018-01-27T00:39:38.302Z,29.40
2018-01-27T00:42:05.881Z,31.57
2018-01-27T00:44:33.421Z,30.43
2018-01-27T00:47:01.006Z,30.43
2018-01-27T00:49:28.544Z,31.43
2018-01-27T00:51:56.124Z,29.00
2018-01-27T00:54:23.663Z,31.43
2018-01-27T00:56:51.243Z,23.70
2018-01-27T00:59:18.788Z,28.13
2018-01-27T01:01:46.416Z,25.80
2018-01-27T01:04:13.944Z,33.40
2018-01-27T01:06:42.283Z,26.87
2018-01-27T01:09:09.812Z,27.60
2018-01-27T01:11:37.391Z,27.03
2018-01-27T01:14:04.925Z,29.87
2018-01-27T01:16:32.507Z,28.53
2018-01-27T01:19:00.045Z,33.00
2018-01-27T01:21:27.635Z,28.93
2018-01-27T01:23:55.191Z,28.10
2018-01-27T01:28:53.498Z,25.33
2018-01-27T01:31:21.042Z,27.27
2018-01-27T01:33:48.624Z,26.90
2018-01-27T01:36:16.165Z,29.70
2018-01-27T01:38:43.743Z,21.20
2018-01-27T01:41:11.280Z,30.07
2018-01-27T01:43:44.548Z,30.27
2018-01-27T01:46:12.088Z,25.27
2018-01-27T01:48:39.670Z,28.67
2018-01-27T01:51:07.206Z,27.13
2018-01-27T01:53:35.562Z,27.13
2018-01-27T01:56:03.103Z,26.90
2018-01-27T01:58:30.688Z,25.47
2018-01-27T02:00:58.296Z,27.67
2018-01-27T02:03:25.853Z,23.77
2018-01-27T02:05:53.392Z,26.57
2018-01-27T02:08:20.968Z,24.60
2018-01-27T02:10:48.501Z,28.80
2018-01-27T02:13:16.850Z,26.77
2018-01-27T02:15:44.385Z,22.03
2018-01-27T02:18:11.975Z,24.37
2018-01-27T02:20:39.541Z,23.50
2018-01-27T02:23:07.120Z,24.37
2018-01-27T02:25:35.428Z,24.70
2018-01-27T02:28:03.003Z,28.40
2018-01-27T02:30:30.536Z,25.83
2018-01-27T02:32:58.112Z,23.97
2018-01-27T02:35:25.661Z,27.87
2018-01-27T02:37:53.243Z,25.70
2018-01-27T02:40:20.779Z,45.43
2018-01-27T02:42:48.380Z,26.55
2018-01-27T02:45:15.923Z,25.00
2018-01-27T02:47:43.464Z,20.70
2018-01-27T02:50:11.044Z,26.10
2018-01-27T02:52:38.579Z,20.50
2018-01-27T02:55:06.158Z,26.10
2018-01-27T02:57:33.695Z,26.60
2018-01-27T03:00:01.285Z,30.43
2018-01-27T03:02:28.823Z,25.00
2018-01-27T03:04:56.407Z,22.50
2018-01-27T03:07:23.948Z,22.17
2018-01-27T03:09:51.536Z,22.23
2018-01-27T03:12:19.079Z,25.80
2018-01-27T03:14:46.714Z,24.30
2018-01-27T03:17:14.983Z,21.07
2018-01-27T03:19:42.571Z,24.23
2018-01-27T03:22:10.103Z,28.70
2018-01-27T03:24:37.688Z,20.47
2018-01-27T03:27:05.232Z,21.10
2018-01-27T03:29:32.809Z,21.40
2018-01-27T03:32:00.468Z,22.77
2018-01-27T03:34:28.056Z,21.40
2018-01-27T03:36:55.600Z,19.80
2018-01-27T03:39:23.178Z,21.77
2018-01-27T03:41:50.715Z,21.33
2018-01-27T03:44:18.297Z,19.50
2018-01-27T03:46:45.840Z,25.13
2018-01-27T03:49:13.415Z,19.50
2018-01-27T03:51:40.955Z,26.47
2018-01-27T03:54:08.499Z,25.60
2018-01-27T03:56:36.075Z,22.70
2018-01-27T03:59:03.656Z,27.63
2018-01-27T04:01:31.196Z,22.07
2018-01-27T04:03:58.776Z,19.70
2018-01-27T04:06:26.321Z,20.07
2018-01-27T04:08:53.909Z,20.70
2018-01-27T04:11:22.222Z,21.17
2018-01-27T04:13:49.804Z,24.03
2018-01-27T04:16:17.348Z,20.57
2018-01-27T04:18:44.923Z,20.67
2018-01-27T04:21:12.461Z,21.23
2018-01-27T04:23:40.051Z,21.57
2018-01-27T04:26:07.593Z,19.10
2018-01-27T04:28:35.178Z,22.93
2018-01-27T04:31:02.719Z,18.67
2018-01-27T04:33:30.295Z,22.27
2018-01-27T04:35:57.834Z,21.53
2018-01-27T04:38:25.418Z,21.50
2018-01-27T04:40:52.957Z,21.80
2018-01-27T04:43:20.533Z,18.83
2018-01-27T04:45:48.106Z,19.00
2018-01-27T04:48:15.719Z,20.93
2018-01-27T04:50:43.254Z,18.67
2018-01-27T04:53:11.616Z,19.50
2018-01-27T04:55:39.149Z,20.63
2018-01-27T04:58:06.696Z,25.70
2018-01-27T05:00:34.282Z,20.53
2018-01-27T05:03:01.828Z,18.00
2018-01-27T05:05:29.407Z,22.20
2018-01-27T05:07:56.952Z,20.20
2018-01-27T05:10:24.576Z,21.47
2018-01-27T05:12:52.863Z,21.13
2018-01-27T05:15:20.438Z,23.73
2018-01-27T05:17:47.979Z,17.20
2018-01-27T05:20:15.559Z,17.23
2018-01-27T05:22:43.106Z,20.07
2018-01-27T05:25:10.682Z,19.40
2018-01-27T05:27:38.231Z,21.45
2018-01-27T05:30:05.811Z,17.50
2018-01-27T05:32:33.410Z,20.87
2018-01-27T05:35:01.762Z,24.60
2018-01-27T05:37:29.307Z,24.92
2018-01-27T05:39:56.903Z,20.83
2018-01-27T05:42:25.220Z,21.02
2018-01-27T05:44:52.799Z,23.13
2018-01-27T05:47:20.355Z,24.35
2018-01-27T05:49:48.013Z,22.17
2018-01-27T05:52:15.542Z,22.10
2018-01-27T05:54:43.115Z,23.10
2018-01-27T05:57:10.651Z,20.50
2018-01-27T05:59:38.995Z,19.33
2018-01-27T06:02:06.529Z,26.47
2018-01-27T06:04:34.121Z,21.17
2018-01-27T06:07:01.660Z,25.88
2018-01-27T06:09:29.237Z,27.77
2018-01-27T06:11:56.778Z,23.47
2018-01-27T06:14:24.374Z,28.57
2018-01-27T06:16:52.691Z,30.33
2018-01-27T06:19:20.276Z,34.17
2018-01-27T06:21:47.820Z,32.93
2018-01-27T06:24:15.398Z,50.73
2018-01-27T06:26:42.936Z,49.97
2018-01-27T06:29:10.517Z,46.17
2018-01-27T06:31:38.047Z,48.37
2018-01-27T06:34:05.632Z,50.23
2018-01-27T06:36:33.177Z,52.63
2018-01-27T06:39:00.795Z,49.97
2018-01-27T06:41:29.096Z,53.00
2018-01-27T06:43:56.721Z,64.07
2018-01-27T06:46:24.256Z,52.83
2018-01-27T06:48:51.846Z,55.72
2018-01-27T06:51:19.390Z,61.25
2018-01-27T06:53:46.984Z,54.97
2018-01-27T06:56:15.282Z,50.35
2018-01-27T06:58:42.864Z,47.80
2018-01-27T07:01:10.408Z,44.30
2018-01-27T07:03:38.007Z,40.95
2018-01-27T07:06:05.552Z,49.28
2018-01-27T07:08:33.107Z,51.70
2018-01-27T07:11:00.689Z,70.57
2018-01-27T07:13:28.227Z,54.75
2018-01-27T07:15:55.815Z,55.47
2018-01-27T07:18:23.364Z,63.25
2018-01-27T07:20:50.948Z,68.07
2018-01-27T07:23:19.256Z,69.43
2018-01-27T07:25:46.838Z,67.15
2018-01-27T07:28:14.379Z,69.30
2018-01-27T07:30:41.969Z,84.28
2018-01-27T07:33:09.509Z,71.97
2018-01-27T07:35:37.097Z,81.03
2018-01-27T07:38:04.643Z,76.87
2018-01-27T07:40:32.224Z,80.68
2018-01-27T07:43:00.603Z,77.93
2018-01-27T07:45:28.200Z,77.60
2018-01-27T07:47:55.742Z,67.62
2018-01-27T07:50:24.104Z,96.60
2018-01-27T07:52:51.648Z,77.03
2018-01-27T07:55:19.233Z,79.22
2018-01-27T07:57:47.545Z,73.22
2018-01-27T08:00:15.133Z,79.85
2018-01-27T08:02:42.675Z,85.20
2018-01-27T08:05:10.364Z,83.18
2018-01-27T08:07:37.917Z,92.20
2018-01-27T08:10:05.509Z,80.45
2018-01-27T08:12:33.048Z,90.10
2018-01-27T08:15:00.644Z,77.67
2018-01-27T08:17:28.956Z,90.03
2018-01-27T08:19:56.542Z,86.30
2018-01-27T08:22:24.083Z,87.60
2018-01-27T08:24:51.704Z,87.53
2018-01-27T08:27:20.008Z,79.85
2018-01-27T08:29:47.598Z,101.07
2018-01-27T08:32:15.143Z,95.80
2018-01-27T08:34:42.735Z,91.25
2018-01-27T08:37:10.277Z,93.60
2018-01-27T08:39:37.867Z,89.23
2018-01-27T08:42:05.411Z,88.62
2018-01-27T08:44:32.994Z,89.97
2018-01-27T08:47:01.308Z,83.57
2018-01-27T08:49:28.888Z,94.87
2018-01-27T08:51:56.429Z,82.32
2018-01-27T08:54:24.019Z,90.32
2018-01-27T08:56:51.681Z,81.07
2018-01-27T08:59:19.263Z,85.25
2018-01-27T09:01:46.884Z,95.38
2018-01-27T09:04:14.468Z,86.95
2018-01-27T09:06:42.013Z,87.32
2018-01-27T09:09:09.599Z,84.40
2018-01-27T09:11:37.962Z,94.65
2018-01-27T09:14:05.695Z,83.90
2018-01-27T09:16:33.371Z,82.70
2018-01-27T09:19:00.957Z,87.83
2018-01-27T09:21:28.511Z,89.50
2018-01-27T09:23:56.094Z,83.10
2018-01-27T09:26:23.647Z,82.28
2018-01-27T09:28:51.236Z,87.07
2018-01-27T09:31:18.944Z,115.07
2018-01-27T09:33:46.551Z,109.60
2018-01-27T09:36:14.856Z,88.50
2018-01-27T09:38:42.456Z,93.83
2018-01-27T09:41:10.001Z,79.82
2018-01-27T09:43:37.627Z,83.45
2018-01-27T09:46:05.178Z,86.72
2018-01-27T09:48:33.540Z,90.75
2018-01-27T09:51:01.850Z,82.97
2018-01-27T09:53:29.444Z,88.22
2018-01-27T09:55:57.003Z,85.70
2018-01-27T09:58:24.958Z,91.95
2018-01-27T10:00:52.515Z,98.68
2018-01-27T10:03:20.100Z,93.20
2018-01-27T10:05:47.641Z,87.57
2018-01-27T10:08:15.228Z,96.87
2018-01-27T10:10:42.778Z,85.80
2018-01-27T10:13:10.357Z,82.57
2018-01-27T10:15:37.900Z,88.85
2018-01-27T10:18:05.496Z,96.07
2018-01-27T10:20:33.811Z,96.28
2018-01-27T10:23:01.390Z,84.95
2018-01-27T10:25:28.935Z,84.80
2018-01-27T10:27:56.525Z,80.93
2018-01-27T10:30:24.072Z,80.53
2018-01-27T10:32:51.699Z,80.70
2018-01-27T10:35:19.299Z,83.05
2018-01-27T10:37:46.911Z,86.83
2018-01-27T10:40:14.482Z,83.75
2018-01-27T10:42:42.084Z,74.05
2018-01-27T10:45:09.639Z,78.55
2018-01-27T10:47:37.262Z,74.07
2018-01-27T10:50:04.812Z,70.35
2018-01-27T10:52:32.366Z,68.37
2018-01-27T10:54:59.970Z,76.25
2018-01-27T10:57:27.526Z,73.95
2018-01-27T10:59:55.115Z,72.00
2018-01-27T11:02:22.678Z,76.37
2018-01-27T11:04:51.037Z,69.97
2018-01-27T11:07:18.579Z,67.87
2018-01-27T11:09:46.160Z,66.60
2018-01-27T11:12:13.705Z,63.90
2018-01-27T11:14:41.338Z,55.85
2018-01-27T11:17:08.885Z,61.72
2018-01-27T11:19:37.248Z,62.20
2018-01-27T11:22:05.565Z,59.60
2018-01-27T11:24:33.166Z,58.35
2018-01-27T11:27:00.715Z,58.23
2018-01-27T11:29:28.335Z,53.38
2018-01-27T11:31:55.885Z,54.67
2018-01-27T11:34:23.483Z,59.97
2018-01-27T11:36:51.041Z,51.42
2018-01-27T11:39:18.633Z,53.58
2018-01-27T11:41:46.197Z,54.67
2018-01-27T11:44:13.788Z,51.95
2018-01-27T11:46:42.086Z,48.03
2018-01-27T11:49:09.679Z,49.77
2018-01-27T11:51:37.233Z,46.50
2018-01-27T11:54:04.815Z,49.80
2018-01-27T11:56:32.360Z,50.45
2018-01-27T11:58:59.957Z,50.67
2018-01-27T12:01:28.265Z,42.97
2018-01-27T12:03:55.867Z,51.42
2018-01-27T12:06:23.485Z,49.20
2018-01-27T12:08:51.102Z,51.08
2018-01-27T12:11:19.407Z,46.47
2018-01-27T12:13:46.991Z,50.40
2018-01-27T12:16:14.537Z,47.97
2018-01-27T12:18:42.124Z,48.97
2018-01-27T12:21:09.771Z,52.63
2018-01-27T12:23:37.359Z,52.78
2018-01-27T12:26:04.908Z,49.00
2018-01-27T12:28:32.506Z,49.42
2018-01-27T12:31:00.813Z,49.58
2018-01-27T12:33:28.409Z,45.40
2018-01-27T12:35:55.951Z,50.40
2018-01-27T12:38:23.598Z,50.17
2018-01-27T12:40:51.143Z,56.83
2018-01-27T12:43:19.487Z,48.20
2018-01-27T12:45:47.116Z,43.67
2018-01-27T12:48:14.715Z,49.25
2018-01-27T12:50:42.259Z,48.77
2018-01-27T12:53:09.850Z,51.67
2018-01-27T12:55:38.194Z,53.13
2018-01-27T12:58:05.787Z,51.80
2018-01-27T13:00:34.100Z,42.58
2018-01-27T13:03:01.727Z,49.37
2018-01-27T13:05:30.035Z,49.10
2018-01-27T13:07:57.654Z,48.40
2018-01-27T13:10:25.962Z,53.92
2018-01-27T13:12:53.646Z,47.40
2018-01-27T13:15:21.195Z,54.67
2018-01-27T13:17:48.784Z,52.30
2018-01-27T13:20:16.428Z,43.50
2018-01-27T13:22:44.045Z,50.23
2018-01-27T13:25:12.368Z,43.90
2018-01-27T13:27:39.912Z,45.07
2018-01-27T13:30:07.543Z,48.35
2018-01-27T13:32:35.843Z,41.37
2018-01-27T13:35:03.430Z,42.93
2018-01-27T13:37:30.968Z,40.03
2018-01-27T13:39:58.597Z,46.33
2018-01-27T13:42:26.981Z,48.15
2018-01-27T13:44:55.459Z,51.13
2018-01-27T13:47:23.891Z,49.53
2018-01-27T13:49:51.867Z,38.27
2018-01-27T13:52:19.626Z,47.97
2018-01-27T13:54:47.236Z,47.10
2018-01-27T13:57:15.562Z,46.70
2018-01-27T13:59:43.157Z,42.50
2018-01-27T14:02:10.710Z,47.37
2018-01-27T14:04:38.358Z,47.20
2018-01-27T14:07:05.898Z,44.83
2018-01-27T14:09:33.588Z,39.40
2018-01-27T14:12:01.180Z,42.60
2018-01-27T14:14:29.529Z,47.70
2018-01-27T14:16:57.080Z,50.30
2018-01-27T14:19:24.670Z,55.37
2018-01-27T14:21:52.979Z,44.80
2018-01-27T14:24:20.577Z,39.57
2018-01-27T14:26:48.172Z,39.90
2018-01-27T14:29:15.807Z,39.60
2018-01-27T14:31:43.356Z,40.33
2018-01-27T14:34:10.980Z,40.50
2018-01-27T14:36:39.562Z,45.47
2018-01-27T14:39:07.155Z,42.83
2018-01-27T14:41:34.695Z,40.83
2018-01-27T14:44:02.297Z,44.88
2018-01-27T14:46:29.884Z,39.70
2018-01-27T14:48:58.282Z,47.33
2018-01-27T14:51:26.575Z,42.90
2018-01-27T14:53:54.168Z,41.97
2018-01-27T14:56:21.712Z,41.63
2018-01-27T14:58:49.292Z,44.63
2018-01-27T15:01:17.599Z,35.00
2018-01-27T15:03:45.954Z,38.30
2018-01-27T15:06:13.503Z,40.15
2018-01-27T15:08:41.124Z,36.27
2018-01-27T15:11:09.424Z,41.50
2018-01-27T15:13:37.052Z,38.63
2018-01-27T15:16:04.614Z,40.60
2018-01-27T15:18:32.212Z,41.37
2018-01-27T15:20:59.797Z,40.37
2018-01-27T15:23:27.372Z,41.47
2018-01-27T15:25:54.905Z,42.77
2018-01-27T15:28:22.483Z,41.47
2018-01-27T15:30:50.025Z,43.07
2018-01-27T15:33:17.649Z,39.53
2018-01-27T15:35:45.207Z,39.53
2018-01-27T15:38:12.797Z,36.17
2018-01-27T15:40:40.389Z,47.80
2018-01-27T15:43:07.923Z,42.57
2018-01-27T15:45:35.558Z,44.85
2018-01-27T15:48:03.157Z,50.47
2018-01-27T15:50:30.779Z,52.53
2018-01-27T15:52:58.315Z,52.80
2018-01-27T15:55:25.901Z,54.40
2018-01-27T15:57:53.488Z,50.80
2018-01-27T16:00:21.074Z,56.33
2018-01-27T16:02:49.483Z,60.57
2018-01-27T16:05:17.062Z,57.23
2018-01-27T16:07:44.827Z,53.87
2018-01-27T16:10:12.419Z,56.90
2018-01-27T16:12:39.958Z,63.77
2018-01-27T16:15:07.556Z,61.33
2018-01-27T16:17:35.092Z,63.20
2018-01-27T16:20:02.672Z,68.30
2018-01-27T16:22:30.203Z,64.17
2018-01-27T16:24:57.832Z,62.83
2018-01-27T16:27:25.371Z,56.57
2018-01-27T16:29:53.719Z,58.97
2018-01-27T16:32:21.261Z,59.07
2018-01-27T16:34:48.841Z,56.73
2018-01-27T16:37:16.429Z,54.75
2018-01-27T16:39:44.774Z,51.60
2018-01-27T16:42:12.354Z,56.37
2018-01-27T16:44:40.001Z,57.70
2018-01-27T16:47:07.548Z,56.80
2018-01-27T16:49:35.216Z,60.17
2018-01-27T16:52:02.792Z,59.83
2018-01-27T16:54:30.377Z,59.83
2018-01-27T16:56:57.977Z,58.65
2018-01-27T16:59:25.604Z,62.37
2018-01-27T17:01:53.191Z,61.85
2018-01-27T17:04:20.775Z,60.55
2018-01-27T17:06:48.370Z,56.05
2018-01-27T17:09:16.713Z,66.83
2018-01-27T17:11:44.302Z,70.13
2018-01-27T17:14:12.704Z,64.80
2018-01-27T17:16:40.267Z,59.25
2018-01-27T17:19:07.911Z,66.90
2018-01-27T17:21:36.274Z,66.90
2018-01-27T17:24:03.869Z,66.50
2018-01-27T17:26:31.416Z,66.68
2018-01-27T17:28:59.000Z,66.45
2018-01-27T17:31:26.571Z,73.10
2018-01-27T17:33:54.204Z,76.23
2018-01-27T17:36:21.799Z,69.27
2018-01-27T17:38:49.440Z,65.95
2018-01-27T17:41:16.980Z,67.00
2018-01-27T17:43:45.328Z,69.07
2018-01-27T17:46:12.926Z,66.90
2018-01-27T17:48:40.475Z,59.90
2018-01-27T17:51:08.869Z,64.30
2018-01-27T17:53:36.497Z,64.23
2018-01-27T17:56:04.085Z,72.60
2018-01-27T17:58:31.681Z,77.03
2018-01-27T18:00:59.274Z,60.40
2018-01-27T18:03:26.899Z,62.08
2018-01-27T18:05:54.538Z,61.97
2018-01-27T18:08:22.140Z,56.33
2018-01-27T18:10:49.728Z,55.73
2018-01-27T18:13:18.088Z,62.00
2018-01-27T18:15:45.741Z,67.47
2018-01-27T18:18:13.280Z,58.73
2018-01-27T18:20:40.905Z,66.60
2018-01-27T18:23:09.210Z,57.93
2018-01-27T18:25:36.878Z,65.47
2018-01-27T18:28:04.467Z,58.95
2018-01-27T18:30:32.050Z,56.35
2018-01-27T18:33:00.360Z,58.78
2018-01-27T18:35:27.948Z,55.70
2018-01-27T18:37:55.495Z,76.15
2018-01-27T18:40:23.121Z,68.13
2018-01-27T18:42:51.755Z,65.00
2018-01-27T18:45:19.343Z,67.15
2018-01-27T18:47:46.879Z,70.97
2018-01-27T18:50:14.519Z,68.43
2018-01-27T18:52:42.056Z,65.78
2018-01-27T18:55:09.682Z,61.33
2018-01-27T18:57:38.740Z,61.55
2018-01-27T19:00:06.377Z,64.53
2018-01-27T19:02:33.987Z,61.72
2018-01-27T19:05:01.629Z,83.72
2018-01-27T19:07:29.198Z,117.40
2018-01-27T19:09:56.802Z,130.60
2018-01-27T19:12:25.151Z,68.87
2018-01-27T19:14:52.794Z,133.85
2018-01-27T19:17:20.449Z,85.55
2018-01-27T19:19:48.253Z,66.28
2018-01-27T19:22:15.903Z,64.22
2018-01-27T19:24:43.679Z,66.15
2018-01-27T19:27:12.115Z,70.40
2018-01-27T19:29:39.748Z,72.62
2018-01-27T19:32:08.202Z,64.18
2018-01-27T19:34:36.767Z,66.55
2018-01-27T19:37:04.363Z,69.75
2018-01-27T19:39:32.998Z,65.23
2018-01-27T19:42:00.763Z,64.18
2018-01-27T19:44:28.409Z,68.12
2018-01-27T19:46:55.955Z,59.30
2018-01-27T19:49:23.638Z,61.57
2018-01-27T19:51:51.240Z,67.80
2018-01-27T19:54:19.789Z,70.93
2018-01-27T19:56:47.450Z,64.47
2018-01-27T19:59:15.121Z,61.55
2018-01-27T20:01:42.745Z,71.57
2018-01-27T20:04:10.644Z,60.30
2018-01-27T20:06:38.270Z,68.50
2018-01-27T20:09:05.914Z,64.00
2018-01-27T20:11:34.448Z,67.95
2018-01-27T20:14:02.216Z,62.38
2018-01-27T20:16:29.877Z,61.92
2018-01-27T20:18:58.358Z,67.75
2018-01-27T20:21:25.920Z,63.25
2018-01-27T20:23:53.570Z,69.83
2018-01-27T20:26:21.265Z,66.40
2018-01-27T20:28:48.884Z,66.53
2018-01-27T20:31:16.570Z,69.57
2018-01-27T20:33:44.231Z,71.65
2018-01-27T20:36:11.890Z,76.80
2018-01-27T20:38:39.549Z,64.75
2018-01-27T20:41:07.139Z,62.25
2018-01-27T20:43:36.411Z,57.20
2018-01-27T20:46:04.009Z,66.22
2018-01-27T20:48:31.642Z,65.12
2018-01-27T20:50:59.285Z,72.47
2018-01-27T20:53:26.966Z,66.27
2018-01-27T20:55:54.622Z,67.80
2018-01-27T20:58:22.288Z,69.60
2018-01-27T21:00:49.982Z,52.50
2018-01-27T21:03:18.393Z,63.70
2018-01-27T21:05:45.931Z,65.50
2018-01-27T21:08:14.343Z,58.08
2018-01-27T21:10:41.891Z,58.80
2018-01-27T21:13:09.581Z,61.05
2018-01-27T21:15:37.171Z,63.42
2018-01-27T21:18:04.756Z,59.55
2018-01-27T21:20:33.116Z,57.10
2018-01-27T21:23:00.751Z,58.30
2018-01-27T21:25:28.417Z,59.90
2018-01-27T21:27:56.016Z,55.38
2018-01-27T21:30:24.370Z,59.45
2018-01-27T21:32:51.997Z,61.47
2018-01-27T21:35:19.585Z,65.78
2018-01-27T21:37:47.338Z,59.60
2018-01-27T21:40:14.923Z,66.37
2018-01-27T21:42:42.510Z,66.75
2018-01-27T21:45:10.871Z,68.40
2018-01-27T21:47:39.238Z,58.63
2018-01-27T21:50:07.603Z,61.15
2018-01-27T21:52:35.254Z,64.82
2018-01-27T21:55:02.859Z,57.55
2018-01-27T21:57:31.163Z,59.30
2018-01-27T21:59:58.801Z,63.15
2018-01-27T22:02:27.164Z,69.00
2018-01-27T22:04:54.802Z,63.17
2018-01-27T22:07:22.381Z,59.40
2018-01-27T22:09:49.962Z,61.53
2018-01-27T22:12:18.315Z,60.22
2018-01-27T22:14:45.952Z,55.50
2018-01-27T22:17:13.537Z,59.15
2018-01-27T22:19:41.178Z,63.47
2018-01-27T22:22:08.767Z,64.55
2018-01-27T22:24:36.409Z,57.70
2018-01-27T22:27:04.037Z,58.00
2018-01-27T22:29:31.627Z,57.80
2018-01-27T22:31:59.209Z,60.03
2018-01-27T22:34:26.838Z,60.38
2018-01-27T22:36:54.425Z,69.60
2018-01-27T22:39:22.063Z,65.70
2018-01-27T22:41:49.654Z,58.70
2018-01-27T22:44:17.288Z,51.60
2018-01-27T22:46:44.827Z,49.57
2018-01-27T22:49:12.466Z,60.30
2018-01-27T22:51:40.812Z,63.43
2018-01-27T22:54:08.396Z,52.07
2018-01-27T22:56:36.703Z,65.47
2018-01-27T22:59:04.334Z,70.70
2018-01-27T23:01:32.694Z,69.28
2018-01-27T23:04:00.330Z,64.35
2018-01-27T23:06:27.924Z,56.28
2018-01-27T23:08:55.545Z,57.72
2018-01-27T23:11:23.087Z,53.05
2018-01-27T23:13:50.714Z,57.50
2018-01-27T23:16:19.020Z,58.55
2018-01-27T23:18:46.654Z,63.90
2018-01-27T23:21:15.016Z,57.13
2018-01-27T23:23:42.603Z,54.25
2018-01-27T23:26:10.909Z,67.20
2018-01-27T23:28:38.543Z,56.28
2018-01-27T23:31:07.062Z,65.87
2018-01-27T23:33:34.709Z,61.85
2018-01-27T23:36:02.315Z,62.55
2018-01-27T23:38:29.936Z,62.22
2018-01-27T23:40:57.481Z,59.95
2018-01-27T23:43:25.025Z,55.72
2018-01-27T23:45:52.663Z,58.90
2018-01-27T23:48:20.248Z,58.30
2018-01-27T23:50:48.557Z,57.60
2018-01-27T23:53:16.181Z,64.90
2018-01-27T23:55:44.531Z,54.38
2018-01-27T23:58:12.119Z,71.43
